sensor_id;sensor_type;location;lat;lon;timestamp;temperature;humidity
16995;DHT22;8614;48.522;9.206;2022-11-20T03:00:31;4.80;99.90
16995;DHT22;8614;48.522;9.206;2022-11-20T03:02:59;4.80;99.90
16995;DHT22;8614;48.522;9.206;2022-11-20T03:05:26;4.80;99.90
16995;DHT22;8614;48.522;9.206;2022-11-20T03:07:52;4.80;99.90
16995;DHT22;8614;48.522;9.206;2022-11-20T03:10:19;4.80;99.90
16995;DHT22;8614;48.522;9.206;2022-11-20T03:12:46;4.90;99.90
16995;DHT22;8614;48.522;9.206;2022-11-20T03:15:13;4.90;99.90
16995;DHT22;8614;48.522;9.206;2022-11-20T03:17:41;4.90;99.90
16995;DHT22;8614;48.522;9.206;2022-11-20T03:20:09;5.00;99.90
16995;DHT22;8614;48.522;9.206;2022-11-20T03:22:36;5.00;99.90
16995;DHT22;8614;48.522;9.206;2022-11-20T03:25:04;5.00;99.90
16995;DHT22;8614;48.522;9.206;2022-11-20T03:27:32;5.00;99.90
16995;DHT22;8614;48.522;9.206;2022-11-20T03:29:59;5.10;99.90
16995;DHT22;8614;48.522;9.206;2022-11-20T03:32:26;5.10;99.90
16995;DHT22;8614;48.522;9.206;2022-11-20T03:34:55;5.20;99.90
16995;DHT22;8614;48.522;9.206;2022-11-20T03:37:22;5.20;99.90
16995;DHT22;8614;48.522;9.206;2022-11-20T03:39:49;5.10;99.90
16995;DHT22;8614;48.522;9.206;2022-11-20T03:42:15;5.20;99.90
16995;DHT22;8614;48.522;9.206;2022-11-20T03:44:56;5.20;99.90
16995;DHT22;8614;48.522;9.206;2022-11-20T03:47:23;5.20;99.90
16995;DHT22;8614;48.522;9.206;2022-11-20T03:49:50;5.30;99.90
16995;DHT22;8614;48.522;9.206;2022-11-20T03:52:18;5.40;99.90
16995;DHT22;8614;48.522;9.206;2022-11-20T03:54:45;5.50;99.90
16995;DHT22;8614;48.522;9.206;2022-11-20T03:57:12;5.60;99.90
16995;DHT22;8614;48.522;9.206;2022-11-20T03:59:39;5.60;99.90
16995;DHT22;8614;48.522;9.206;2022-11-20T04:02:05;5.70;99.90
16995;DHT22;8614;48.522;9.206;2022-11-20T04:04:32;5.80;99.90
16995;DHT22;8614;48.522;9.206;2022-11-20T04:06:59;5.80;99.90
16995;DHT22;8614;48.522;9.206;2022-11-20T04:09:27;5.90;99.90
16995;DHT22;8614;48.522;9.206;2022-11-20T04:11:55;5.90;99.90
16995;DHT22;8614;48.522;9.206;2022-11-20T04:14:22;6.00;99.90
16995;DHT22;8614;48.522;9.206;2022-11-20T04:16:48;6.00;99.90
16995;DHT22;8614;48.522;9.206;2022-11-20T04:19:16;6.00;99.90
16995;DHT22;8614;48.522;9.206;2022-11-20T04:21:44;6.10;99.90
16995;DHT22;8614;48.522;9.206;2022-11-20T04:24:11;6.10;99.90
16995;DHT22;8614;48.522;9.206;2022-11-20T04:26:39;6.10;99.90
16995;DHT22;8614;48.522;9.206;2022-11-20T04:29:09;6.10;99.90
16995;DHT22;8614;48.522;9.206;2022-11-20T04:31:36;6.10;99.90
16995;DHT22;8614;48.522;9.206;2022-11-20T04:34:04;6.10;99.90
16995;DHT22;8614;48.522;9.206;2022-11-20T04:36:32;6.10;99.90
16995;DHT22;8614;48.522;9.206;2022-11-20T04:39:01;6.10;99.90
16995;DHT22;8614;48.522;9.206;2022-11-20T04:41:30;6.10;99.90
16995;DHT22;8614;48.522;9.206;2022-11-20T04:44:00;6.10;99.90
16995;DHT22;8614;48.522;9.206;2022-11-20T04:46:29;6.10;99.90
16995;DHT22;8614;48.522;9.206;2022-11-20T04:48:56;6.10;99.90
16995;DHT22;8614;48.522;9.206;2022-11-20T04:51:23;6.10;99.90
16995;DHT22;8614;48.522;9.206;2022-11-20T04:53:50;6.10;99.90
16995;DHT22;8614;48.522;9.206;2022-11-20T04:56:17;6.10;99.90
16995;DHT22;8614;48.522;9.206;2022-11-20T04:58:44;6.10;99.90
16995;DHT22;8614;48.522;9.206;2022-11-20T05:01:14;6.10;99.90
16995;DHT22;8614;48.522;9.206;2022-11-20T05:03:43;6.10;99.90
16995;DHT22;8614;48.522;9.206;2022-11-20T05:06:11;6.00;99.90
16995;DHT22;8614;48.522;9.206;2022-11-20T05:08:39;6.00;99.90
16995;DHT22;8614;48.522;9.206;2022-11-20T05:11:08;6.10;99.90
16995;DHT22;8614;48.522;9.206;2022-11-20T05:13:35;6.10;99.90
16995;DHT22;8614;48.522;9.206;2022-11-20T05:16:03;6.10;99.90
16995;DHT22;8614;48.522;9.206;2022-11-20T05:18:31;6.10;99.90
16995;DHT22;8614;48.522;9.206;2022-11-20T05:20:59;6.10;99.90
16995;DHT22;8614;48.522;9.206;2022-11-20T05:23:27;6.10;99.90
16995;DHT22;8614;48.522;9.206;2022-11-20T05:25:55;6.10;99.90
16995;DHT22;8614;48.522;9.206;2022-11-20T05:28:22;6.10;99.90
16995;DHT22;8614;48.522;9.206;2022-11-20T05:30:49;6.10;99.90
16995;DHT22;8614;48.522;9.206;2022-11-20T05:33:17;6.10;99.90
16995;DHT22;8614;48.522;9.206;2022-11-20T05:35:45;6.10;99.90
16995;DHT22;8614;48.522;9.206;2022-11-20T05:38:13;6.10;99.90
16995;DHT22;8614;48.522;9.206;2022-11-20T05:40:40;6.10;99.90
16995;DHT22;8614;48.522;9.206;2022-11-20T05:43:07;6.10;99.90
16995;DHT22;8614;48.522;9.206;2022-11-20T05:45:34;6.10;99.90
16995;DHT22;8614;48.522;9.206;2022-11-20T05:48:01;6.10;99.90
16995;DHT22;8614;48.522;9.206;2022-11-20T05:50:28;6.00;99.90
16995;DHT22;8614;48.522;9.206;2022-11-20T05:52:57;6.00;99.90
16995;DHT22;8614;48.522;9.206;2022-11-20T05:55:24;6.00;99.90
16995;DHT22;8614;48.522;9.206;2022-11-20T05:57:52;6.00;99.90
16995;DHT22;8614;48.522;9.206;2022-11-20T06:00:19;6.00;99.90
16995;DHT22;8614;48.522;9.206;2022-11-20T06:02:46;5.90;99.90
16995;DHT22;8614;48.522;9.206;2022-11-20T06:05:13;5.90;99.90
16995;DHT22;8614;48.522;9.206;2022-11-20T06:07:40;5.90;99.90
16995;DHT22;8614;48.522;9.206;2022-11-20T06:10:09;5.90;99.90
16995;DHT22;8614;48.522;9.206;2022-11-20T06:12:36;5.90;99.90
16995;DHT22;8614;48.522;9.206;2022-11-20T06:15:03;5.90;99.90
16995;DHT22;8614;48.522;9.206;2022-11-20T06:17:30;5.80;99.90
16995;DHT22;8614;48.522;9.206;2022-11-20T06:19:57;5.90;99.90
16995;DHT22;8614;48.522;9.206;2022-11-20T06:22:24;5.90;99.90
16995;DHT22;8614;48.522;9.206;2022-11-20T06:24:51;5.90;99.90
16995;DHT22;8614;48.522;9.206;2022-11-20T06:27:19;5.80;99.90
16995;DHT22;8614;48.522;9.206;2022-11-20T06:29:46;5.80;99.90
16995;DHT22;8614;48.522;9.206;2022-11-20T06:32:13;5.80;99.90
16995;DHT22;8614;48.522;9.206;2022-11-20T06:34:40;5.80;99.90
16995;DHT22;8614;48.522;9.206;2022-11-20T06:37:06;5.80;99.90
16995;DHT22;8614;48.522;9.206;2022-11-20T06:39:33;5.80;99.90
16995;DHT22;8614;48.522;9.206;2022-11-20T06:42:00;5.80;99.90
16995;DHT22;8614;48.522;9.206;2022-11-20T06:44:29;5.80;99.90
16995;DHT22;8614;48.522;9.206;2022-11-20T06:46:56;5.80;99.90
16995;DHT22;8614;48.522;9.206;2022-11-20T06:49:22;5.70;99.90
16995;DHT22;8614;48.522;9.206;2022-11-20T06:51:50;5.70;99.90
16995;DHT22;8614;48.522;9.206;2022-11-20T06:54:17;5.70;99.90
16995;DHT22;8614;48.522;9.206;2022-11-20T06:56:46;5.80;99.90
16995;DHT22;8614;48.522;9.206;2022-11-20T06:59:13;5.80;99.90
16995;DHT22;8614;48.522;9.206;2022-11-20T07:01:41;5.80;99.90
16995;DHT22;8614;48.522;9.206;2022-11-20T07:04:08;5.80;99.90
16995;DHT22;8614;48.522;9.206;2022-11-20T07:06:35;5.80;99.90
16995;DHT22;8614;48.522;9.206;2022-11-20T07:09:02;5.80;99.90
16995;DHT22;8614;48.522;9.206;2022-11-20T07:11:29;5.90;99.90
16995;DHT22;8614;48.522;9.206;2022-11-20T07:13:56;5.90;99.90
16995;DHT22;8614;48.522;9.206;2022-11-20T07:16:23;5.90;99.90
16995;DHT22;8614;48.522;9.206;2022-11-20T07:18:52;5.90;99.90
16995;DHT22;8614;48.522;9.206;2022-11-20T07:21:19;5.90;99.90
16995;DHT22;8614;48.522;9.206;2022-11-20T07:23:46;6.00;99.90
16995;DHT22;8614;48.522;9.206;2022-11-20T07:26:12;6.00;99.90
16995;DHT22;8614;48.522;9.206;2022-11-20T07:28:39;6.00;99.90
16995;DHT22;8614;48.522;9.206;2022-11-20T07:31:07;6.00;99.90
16995;DHT22;8614;48.522;9.206;2022-11-20T07:33:33;6.10;99.90
16995;DHT22;8614;48.522;9.206;2022-11-20T07:36:02;6.20;99.90
16995;DHT22;8614;48.522;9.206;2022-11-20T07:38:29;6.20;99.90
16995;DHT22;8614;48.522;9.206;2022-11-20T07:40:56;6.20;99.90
16995;DHT22;8614;48.522;9.206;2022-11-20T07:43:24;6.30;99.90
16995;DHT22;8614;48.522;9.206;2022-11-20T07:45:51;6.30;99.90
16995;DHT22;8614;48.522;9.206;2022-11-20T07:48:18;6.40;99.90
16995;DHT22;8614;48.522;9.206;2022-11-20T07:50:45;6.50;99.90
16995;DHT22;8614;48.522;9.206;2022-11-20T07:53:13;6.50;99.90
16995;DHT22;8614;48.522;9.206;2022-11-20T07:55:46;6.50;99.90
16995;DHT22;8614;48.522;9.206;2022-11-20T07:58:13;6.60;99.90
16995;DHT22;8614;48.522;9.206;2022-11-20T08:00:40;6.70;99.90
16995;DHT22;8614;48.522;9.206;2022-11-20T08:03:07;6.70;99.90
16995;DHT22;8614;48.522;9.206;2022-11-20T08:05:34;6.80;99.90
16995;DHT22;8614;48.522;9.206;2022-11-20T08:08:01;6.90;99.90
16995;DHT22;8614;48.522;9.206;2022-11-20T08:10:29;7.00;99.90
16995;DHT22;8614;48.522;9.206;2022-11-20T08:12:56;7.10;99.90
16995;DHT22;8614;48.522;9.206;2022-11-20T08:15:40;7.10;99.90
16995;DHT22;8614;48.522;9.206;2022-11-20T08:18:09;7.20;99.90
16995;DHT22;8614;48.522;9.206;2022-11-20T08:20:37;7.20;99.90
16995;DHT22;8614;48.522;9.206;2022-11-20T08:23:05;7.20;99.90
16995;DHT22;8614;48.522;9.206;2022-11-20T08:25:35;7.30;99.90
16995;DHT22;8614;48.522;9.206;2022-11-20T08:28:05;7.30;99.90
16995;DHT22;8614;48.522;9.206;2022-11-20T08:30:33;7.30;99.90
16995;DHT22;8614;48.522;9.206;2022-11-20T08:33:01;7.30;99.90
16995;DHT22;8614;48.522;9.206;2022-11-20T08:35:29;7.30;99.90
16995;DHT22;8614;48.522;9.206;2022-11-20T08:37:58;7.30;99.90
16995;DHT22;8614;48.522;9.206;2022-11-20T08:40:25;7.30;99.90
16995;DHT22;8614;48.522;9.206;2022-11-20T08:42:53;7.30;99.90
16995;DHT22;8614;48.522;9.206;2022-11-20T08:45:20;7.30;99.90
16995;DHT22;8614;48.522;9.206;2022-11-20T08:47:47;7.30;99.90
16995;DHT22;8614;48.522;9.206;2022-11-20T08:50:15;7.40;99.90
16995;DHT22;8614;48.522;9.206;2022-11-20T08:52:43;7.40;99.90
16995;DHT22;8614;48.522;9.206;2022-11-20T08:55:10;7.50;99.90
16995;DHT22;8614;48.522;9.206;2022-11-20T08:57:37;7.50;99.90
16995;DHT22;8614;48.522;9.206;2022-11-20T09:00:08;7.60;99.90
16995;DHT22;8614;48.522;9.206;2022-11-20T09:02:35;7.60;99.90
16995;DHT22;8614;48.522;9.206;2022-11-20T09:05:02;7.60;99.90
16995;DHT22;8614;48.522;9.206;2022-11-20T09:07:29;7.70;99.90
16995;DHT22;8614;48.522;9.206;2022-11-20T09:09:56;7.70;99.90
16995;DHT22;8614;48.522;9.206;2022-11-20T09:12:24;7.80;99.90
16995;DHT22;8614;48.522;9.206;2022-11-20T09:14:50;7.80;99.90
16995;DHT22;8614;48.522;9.206;2022-11-20T09:17:19;7.80;99.90
16995;DHT22;8614;48.522;9.206;2022-11-20T09:19:46;7.80;99.90
16995;DHT22;8614;48.522;9.206;2022-11-20T09:22:13;7.90;99.90
16995;DHT22;8614;48.522;9.206;2022-11-20T09:24:40;7.80;99.90
16995;DHT22;8614;48.522;9.206;2022-11-20T09:27:08;7.90;99.90
16995;DHT22;8614;48.522;9.206;2022-11-20T09:29:35;7.90;99.90
16995;DHT22;8614;48.522;9.206;2022-11-20T09:32:02;7.90;99.90
16995;DHT22;8614;48.522;9.206;2022-11-20T09:34:30;7.90;99.90
16995;DHT22;8614;48.522;9.206;2022-11-20T09:36:57;7.90;99.90
16995;DHT22;8614;48.522;9.206;2022-11-20T09:39:24;7.90;99.90
16995;DHT22;8614;48.522;9.206;2022-11-20T09:42:08;7.90;99.90
16995;DHT22;8614;48.522;9.206;2022-11-20T09:44:48;7.90;99.90
16995;DHT22;8614;48.522;9.206;2022-11-20T09:47:26;7.90;99.90
16995;DHT22;8614;48.522;9.206;2022-11-20T09:50:12;7.90;99.90
16995;DHT22;8614;48.522;9.206;2022-11-20T09:52:53;7.80;99.90
16995;DHT22;8614;48.522;9.206;2022-11-20T09:55:21;7.80;99.90
16995;DHT22;8614;48.522;9.206;2022-11-20T09:57:51;7.70;99.90
16995;DHT22;8614;48.522;9.206;2022-11-20T10:00:19;7.60;99.90
16995;DHT22;8614;48.522;9.206;2022-11-20T10:02:50;7.60;99.90
16995;DHT22;8614;48.522;9.206;2022-11-20T10:05:22;7.60;99.90
16995;DHT22;8614;48.522;9.206;2022-11-20T10:08:07;7.50;99.90
16995;DHT22;8614;48.522;9.206;2022-11-20T10:10:43;7.60;99.90
16995;DHT22;8614;48.522;9.206;2022-11-20T10:13:32;7.60;99.90
16995;DHT22;8614;48.522;9.206;2022-11-20T10:16:16;7.60;99.90
16995;DHT22;8614;48.522;9.206;2022-11-20T10:18:57;7.60;99.90
16995;DHT22;8614;48.522;9.206;2022-11-20T10:21:37;7.70;99.90
16995;DHT22;8614;48.522;9.206;2022-11-20T10:24:23;7.70;99.90
16995;DHT22;8614;48.522;9.206;2022-11-20T10:26:58;7.70;99.90
16995;DHT22;8614;48.522;9.206;2022-11-20T10:29:32;7.70;99.90
16995;DHT22;8614;48.522;9.206;2022-11-20T10:32:02;7.70;99.90
16995;DHT22;8614;48.522;9.206;2022-11-20T10:34:35;7.80;99.90
16995;DHT22;8614;48.522;9.206;2022-11-20T10:37:21;7.90;99.90
16995;DHT22;8614;48.522;9.206;2022-11-20T10:39:51;7.90;99.90
16995;DHT22;8614;48.522;9.206;2022-11-20T10:42:26;7.90;99.90
16995;DHT22;8614;48.522;9.206;2022-11-20T10:45:04;8.00;99.90
16995;DHT22;8614;48.522;9.206;2022-11-20T10:47:37;8.00;99.90
16995;DHT22;8614;48.522;9.206;2022-11-20T10:50:11;8.10;99.90
16995;DHT22;8614;48.522;9.206;2022-11-20T10:52:52;8.20;99.90
16995;DHT22;8614;48.522;9.206;2022-11-20T10:55:28;8.30;99.90
16995;DHT22;8614;48.522;9.206;2022-11-20T10:58:03;8.30;99.90
16995;DHT22;8614;48.522;9.206;2022-11-20T11:00:33;8.40;99.90
16995;DHT22;8614;48.522;9.206;2022-11-20T11:03:00;8.50;99.90
16995;DHT22;8614;48.522;9.206;2022-11-20T11:05:36;8.50;99.90
16995;DHT22;8614;48.522;9.206;2022-11-20T11:08:12;8.50;99.90
16995;DHT22;8614;48.522;9.206;2022-11-20T11:10:45;8.60;99.90
16995;DHT22;8614;48.522;9.206;2022-11-20T11:13:23;8.60;99.90
16995;DHT22;8614;48.522;9.206;2022-11-20T11:15:51;8.60;99.90
16995;DHT22;8614;48.522;9.206;2022-11-20T11:18:26;8.70;99.90
16995;DHT22;8614;48.522;9.206;2022-11-20T11:20:54;8.70;99.90
16995;DHT22;8614;48.522;9.206;2022-11-20T11:23:34;8.80;99.90
16995;DHT22;8614;48.522;9.206;2022-11-20T11:26:04;9.00;99.90
16995;DHT22;8614;48.522;9.206;2022-11-20T11:28:32;9.00;99.90
16995;DHT22;8614;48.522;9.206;2022-11-20T11:30:59;9.10;99.90
16995;DHT22;8614;48.522;9.206;2022-11-20T11:33:27;9.20;99.90
16995;DHT22;8614;48.522;9.206;2022-11-20T11:35:56;9.30;99.90
16995;DHT22;8614;48.522;9.206;2022-11-20T11:38:29;9.40;99.90
16995;DHT22;8614;48.522;9.206;2022-11-20T11:40:57;9.50;99.90
16995;DHT22;8614;48.522;9.206;2022-11-20T11:43:26;9.50;99.90
16995;DHT22;8614;48.522;9.206;2022-11-20T11:46:30;9.60;99.90
16995;DHT22;8614;48.522;9.206;2022-11-20T11:48:58;9.60;99.90
16995;DHT22;8614;48.522;9.206;2022-11-20T11:51:30;9.60;99.90
16995;DHT22;8614;48.522;9.206;2022-11-20T11:53:58;9.70;99.90
16995;DHT22;8614;48.522;9.206;2022-11-20T11:56:29;9.70;99.90
16995;DHT22;8614;48.522;9.206;2022-11-20T11:59:00;9.80;99.90
16995;DHT22;8614;48.522;9.206;2022-11-20T12:01:34;9.90;99.90
16995;DHT22;8614;48.522;9.206;2022-11-20T12:04:05;9.90;99.90
16995;DHT22;8614;48.522;9.206;2022-11-20T12:06:42;9.80;99.90
16995;DHT22;8614;48.522;9.206;2022-11-20T12:09:11;9.80;99.90
16995;DHT22;8614;48.522;9.206;2022-11-20T12:11:45;9.80;99.90
16995;DHT22;8614;48.522;9.206;2022-11-20T12:14:17;9.80;99.90
16995;DHT22;8614;48.522;9.206;2022-11-20T12:16:50;9.80;99.90
16995;DHT22;8614;48.522;9.206;2022-11-20T12:19:18;9.70;99.90
16995;DHT22;8614;48.522;9.206;2022-11-20T12:21:55;9.50;99.90
16995;DHT22;8614;48.522;9.206;2022-11-20T12:24:40;9.40;99.90
16995;DHT22;8614;48.522;9.206;2022-11-20T12:27:31;9.30;99.90
16995;DHT22;8614;48.522;9.206;2022-11-20T12:30:06;9.40;99.90
16995;DHT22;8614;48.522;9.206;2022-11-20T12:32:51;9.40;99.90
16995;DHT22;8614;48.522;9.206;2022-11-20T12:35:36;9.30;99.90
16995;DHT22;8614;48.522;9.206;2022-11-20T12:38:23;9.30;99.90
16995;DHT22;8614;48.522;9.206;2022-11-20T12:40:56;9.20;99.90
16995;DHT22;8614;48.522;9.206;2022-11-20T12:43:27;9.20;99.90
16995;DHT22;8614;48.522;9.206;2022-11-20T12:46:24;9.30;99.90
16995;DHT22;8614;48.522;9.206;2022-11-20T12:49:04;9.30;99.90
16995;DHT22;8614;48.522;9.206;2022-11-20T12:51:48;9.30;99.90
16995;DHT22;8614;48.522;9.206;2022-11-20T12:57:31;9.40;99.90
16995;DHT22;8614;48.522;9.206;2022-11-20T13:00:11;9.40;99.90
16995;DHT22;8614;48.522;9.206;2022-11-20T13:03:22;9.40;99.90
16995;DHT22;8614;48.522;9.206;2022-11-20T13:05:58;9.40;99.90
16995;DHT22;8614;48.522;9.206;2022-11-20T13:08:29;9.40;99.90
16995;DHT22;8614;48.522;9.206;2022-11-20T13:11:01;9.30;99.90
16995;DHT22;8614;48.522;9.206;2022-11-20T13:13:39;9.20;99.90
16995;DHT22;8614;48.522;9.206;2022-11-20T13:16:17;9.20;99.90
16995;DHT22;8614;48.522;9.206;2022-11-20T13:18:45;9.20;99.90
16995;DHT22;8614;48.522;9.206;2022-11-20T13:21:17;9.20;99.90
16995;DHT22;8614;48.522;9.206;2022-11-20T13:23:44;9.10;99.90
16995;DHT22;8614;48.522;9.206;2022-11-20T13:26:18;9.10;99.90
16995;DHT22;8614;48.522;9.206;2022-11-20T13:28:46;9.00;99.90
16995;DHT22;8614;48.522;9.206;2022-11-20T13:31:28;8.90;99.90
16995;DHT22;8614;48.522;9.206;2022-11-20T13:33:58;8.90;99.90
16995;DHT22;8614;48.522;9.206;2022-11-20T13:36:28;8.80;99.90
16995;DHT22;8614;48.522;9.206;2022-11-20T13:38:56;8.70;99.90
16995;DHT22;8614;48.522;9.206;2022-11-20T13:41:24;8.70;99.90
16995;DHT22;8614;48.522;9.206;2022-11-20T13:43:57;8.60;99.90
16995;DHT22;8614;48.522;9.206;2022-11-20T13:46:36;8.60;99.90
16995;DHT22;8614;48.522;9.206;2022-11-20T13:49:15;8.50;99.90
16995;DHT22;8614;48.522;9.206;2022-11-20T13:51:44;8.50;99.90
16995;DHT22;8614;48.522;9.206;2022-11-20T13:54:48;8.50;99.90
16995;DHT22;8614;48.522;9.206;2022-11-20T13:57:39;8.50;99.90
16995;DHT22;8614;48.522;9.206;2022-11-20T14:00:12;8.50;99.90
16995;DHT22;8614;48.522;9.206;2022-11-20T14:02:42;8.70;99.90
16995;DHT22;8614;48.522;9.206;2022-11-20T14:05:18;8.80;99.90
16995;DHT22;8614;48.522;9.206;2022-11-20T14:07:47;8.80;99.90
16995;DHT22;8614;48.522;9.206;2022-11-20T14:10:23;8.70;99.90
16995;DHT22;8614;48.522;9.206;2022-11-20T14:12:50;8.60;99.90
16995;DHT22;8614;48.522;9.206;2022-11-20T14:15:28;8.50;99.90
16995;DHT22;8614;48.522;9.206;2022-11-20T14:17:57;8.40;99.90
16995;DHT22;8614;48.522;9.206;2022-11-20T14:20:27;8.30;99.90
16995;DHT22;8614;48.522;9.206;2022-11-20T14:22:55;8.20;99.90
16995;DHT22;8614;48.522;9.206;2022-11-20T14:25:23;8.20;99.90
16995;DHT22;8614;48.522;9.206;2022-11-20T14:27:54;8.10;99.90
16995;DHT22;8614;48.522;9.206;2022-11-20T14:30:23;8.10;99.90
16995;DHT22;8614;48.522;9.206;2022-11-20T14:32:53;8.10;99.90
16995;DHT22;8614;48.522;9.206;2022-11-20T14:35:24;8.10;99.90
16995;DHT22;8614;48.522;9.206;2022-11-20T14:37:52;8.10;99.90
16995;DHT22;8614;48.522;9.206;2022-11-20T14:40:26;8.10;99.90
16995;DHT22;8614;48.522;9.206;2022-11-20T14:42:53;8.00;99.90
16995;DHT22;8614;48.522;9.206;2022-11-20T14:45:21;8.00;99.90
16995;DHT22;8614;48.522;9.206;2022-11-20T14:47:49;7.90;99.90
16995;DHT22;8614;48.522;9.206;2022-11-20T14:50:23;7.90;99.90
16995;DHT22;8614;48.522;9.206;2022-11-20T14:52:52;7.80;99.90
16995;DHT22;8614;48.522;9.206;2022-11-20T14:55:27;7.70;99.90
16995;DHT22;8614;48.522;9.206;2022-11-20T14:57:55;7.70;99.90
16995;DHT22;8614;48.522;9.206;2022-11-20T15:00:23;7.70;99.90
16995;DHT22;8614;48.522;9.206;2022-11-20T15:02:51;7.60;99.90
16995;DHT22;8614;48.522;9.206;2022-11-20T15:05:20;7.60;99.90
16995;DHT22;8614;48.522;9.206;2022-11-20T15:07:50;7.60;99.90
16995;DHT22;8614;48.522;9.206;2022-11-20T15:10:22;7.60;99.90
16995;DHT22;8614;48.522;9.206;2022-11-20T15:12:51;7.60;99.90
16995;DHT22;8614;48.522;9.206;2022-11-20T15:15:21;7.60;99.90
16995;DHT22;8614;48.522;9.206;2022-11-20T15:17:49;7.60;99.90
16995;DHT22;8614;48.522;9.206;2022-11-20T15:20:17;7.60;99.90
16995;DHT22;8614;48.522;9.206;2022-11-20T15:22:44;7.50;99.90
16995;DHT22;8614;48.522;9.206;2022-11-20T15:25:17;7.60;99.90
16995;DHT22;8614;48.522;9.206;2022-11-20T15:27:45;7.50;99.90
16995;DHT22;8614;48.522;9.206;2022-11-20T15:30:13;7.40;99.90
16995;DHT22;8614;48.522;9.206;2022-11-20T15:32:40;7.30;99.90
16995;DHT22;8614;48.522;9.206;2022-11-20T15:35:08;7.30;99.90
16995;DHT22;8614;48.522;9.206;2022-11-20T15:37:35;7.20;99.90
16995;DHT22;8614;48.522;9.206;2022-11-20T15:40:02;7.20;99.90
16995;DHT22;8614;48.522;9.206;2022-11-20T15:42:30;7.10;99.90
16995;DHT22;8614;48.522;9.206;2022-11-20T15:44:57;7.00;99.90
16995;DHT22;8614;48.522;9.206;2022-11-20T15:47:28;6.90;99.90
16995;DHT22;8614;48.522;9.206;2022-11-20T15:49:56;6.90;99.90
16995;DHT22;8614;48.522;9.206;2022-11-20T15:52:23;6.80;99.90
16995;DHT22;8614;48.522;9.206;2022-11-20T15:54:50;6.70;99.90
16995;DHT22;8614;48.522;9.206;2022-11-20T15:57:16;6.60;99.90
16995;DHT22;8614;48.522;9.206;2022-11-20T15:59:45;6.60;99.90
16995;DHT22;8614;48.522;9.206;2022-11-20T16:02:12;6.50;99.90
16995;DHT22;8614;48.522;9.206;2022-11-20T16:04:39;6.50;99.90
16995;DHT22;8614;48.522;9.206;2022-11-20T16:07:06;6.40;99.90
16995;DHT22;8614;48.522;9.206;2022-11-20T16:09:33;6.40;99.90
16995;DHT22;8614;48.522;9.206;2022-11-20T16:12:00;6.30;99.90
16995;DHT22;8614;48.522;9.206;2022-11-20T16:14:27;6.30;99.90
16995;DHT22;8614;48.522;9.206;2022-11-20T16:17:13;6.30;99.90
16995;DHT22;8614;48.522;9.206;2022-11-20T16:19:40;6.20;99.90
16995;DHT22;8614;48.522;9.206;2022-11-20T16:22:09;6.20;99.90
16995;DHT22;8614;48.522;9.206;2022-11-20T16:24:36;6.20;99.90
16995;DHT22;8614;48.522;9.206;2022-11-20T16:27:06;6.30;99.90
16995;DHT22;8614;48.522;9.206;2022-11-20T16:29:33;6.20;99.90
16995;DHT22;8614;48.522;9.206;2022-11-20T16:32:00;6.30;99.90
16995;DHT22;8614;48.522;9.206;2022-11-20T16:34:29;6.30;99.90
16995;DHT22;8614;48.522;9.206;2022-11-20T16:36:55;6.40;99.90
16995;DHT22;8614;48.522;9.206;2022-11-20T16:39:24;6.40;99.90
16995;DHT22;8614;48.522;9.206;2022-11-20T16:41:51;6.40;99.90
16995;DHT22;8614;48.522;9.206;2022-11-20T16:44:18;6.50;99.90
16995;DHT22;8614;48.522;9.206;2022-11-20T16:46:45;6.50;99.90
16995;DHT22;8614;48.522;9.206;2022-11-20T16:49:13;6.50;99.90
16995;DHT22;8614;48.522;9.206;2022-11-20T16:51:45;6.50;99.90
16995;DHT22;8614;48.522;9.206;2022-11-20T16:54:11;6.60;99.90
16995;DHT22;8614;48.522;9.206;2022-11-20T16:56:38;6.60;99.90
16995;DHT22;8614;48.522;9.206;2022-11-20T16:59:05;6.60;99.90
16995;DHT22;8614;48.522;9.206;2022-11-20T17:01:32;6.60;99.90
16995;DHT22;8614;48.522;9.206;2022-11-20T17:04:04;6.60;99.90
16995;DHT22;8614;48.522;9.206;2022-11-20T17:06:35;6.70;99.90
16995;DHT22;8614;48.522;9.206;2022-11-20T17:09:03;6.70;99.90
16995;DHT22;8614;48.522;9.206;2022-11-20T17:11:31;6.70;99.90
16995;DHT22;8614;48.522;9.206;2022-11-20T17:13:59;6.70;99.90
16995;DHT22;8614;48.522;9.206;2022-11-20T17:16:27;6.70;99.90
16995;DHT22;8614;48.522;9.206;2022-11-20T17:18:54;6.70;99.90
16995;DHT22;8614;48.522;9.206;2022-11-20T17:21:21;6.70;99.90
16995;DHT22;8614;48.522;9.206;2022-11-20T17:23:48;6.70;99.90
16995;DHT22;8614;48.522;9.206;2022-11-20T17:26:18;6.70;99.90
16995;DHT22;8614;48.522;9.206;2022-11-20T17:28:51;6.70;99.90
16995;DHT22;8614;48.522;9.206;2022-11-20T17:31:19;6.70;99.90
16995;DHT22;8614;48.522;9.206;2022-11-20T17:33:46;6.70;99.90
16995;DHT22;8614;48.522;9.206;2022-11-20T17:36:15;6.70;99.90
16995;DHT22;8614;48.522;9.206;2022-11-20T17:38:42;6.70;99.90
16995;DHT22;8614;48.522;9.206;2022-11-20T17:41:10;6.70;99.90
16995;DHT22;8614;48.522;9.206;2022-11-20T17:43:39;6.70;99.90
16995;DHT22;8614;48.522;9.206;2022-11-20T17:46:08;6.70;99.90
16995;DHT22;8614;48.522;9.206;2022-11-20T17:48:36;6.70;99.90
16995;DHT22;8614;48.522;9.206;2022-11-20T17:51:06;6.80;99.90
16995;DHT22;8614;48.522;9.206;2022-11-20T17:53:35;6.80;99.90
16995;DHT22;8614;48.522;9.206;2022-11-20T17:56:02;6.80;99.90
16995;DHT22;8614;48.522;9.206;2022-11-20T17:58:48;6.80;99.90
16995;DHT22;8614;48.522;9.206;2022-11-20T18:01:15;6.80;99.90
16995;DHT22;8614;48.522;9.206;2022-11-20T18:03:43;6.80;99.90
16995;DHT22;8614;48.522;9.206;2022-11-20T18:06:11;6.80;99.90
16995;DHT22;8614;48.522;9.206;2022-11-20T18:08:39;6.80;99.90
16995;DHT22;8614;48.522;9.206;2022-11-20T18:11:09;6.80;99.90
16995;DHT22;8614;48.522;9.206;2022-11-20T18:13:37;6.80;99.90
16995;DHT22;8614;48.522;9.206;2022-11-20T18:16:40;6.80;99.90
16995;DHT22;8614;48.522;9.206;2022-11-20T18:19:07;6.90;99.90
16995;DHT22;8614;48.522;9.206;2022-11-20T18:21:35;6.90;99.90
16995;DHT22;8614;48.522;9.206;2022-11-20T18:24:02;6.90;99.90
16995;DHT22;8614;48.522;9.206;2022-11-20T18:26:28;6.90;99.90
16995;DHT22;8614;48.522;9.206;2022-11-20T18:28:56;6.90;99.90
16995;DHT22;8614;48.522;9.206;2022-11-20T18:31:23;6.90;99.90
16995;DHT22;8614;48.522;9.206;2022-11-20T18:33:51;6.90;99.90
16995;DHT22;8614;48.522;9.206;2022-11-20T18:36:21;6.90;99.90
16995;DHT22;8614;48.522;9.206;2022-11-20T18:38:49;6.90;99.90
16995;DHT22;8614;48.522;9.206;2022-11-20T18:41:18;6.90;99.90
16995;DHT22;8614;48.522;9.206;2022-11-20T18:44:06;6.90;99.90
16995;DHT22;8614;48.522;9.206;2022-11-20T18:46:51;6.90;99.90
16995;DHT22;8614;48.522;9.206;2022-11-20T18:49:19;7.00;99.90
16995;DHT22;8614;48.522;9.206;2022-11-20T18:51:46;7.00;99.90
16995;DHT22;8614;48.522;9.206;2022-11-20T18:54:13;7.00;99.90
16995;DHT22;8614;48.522;9.206;2022-11-20T18:56:40;7.00;99.90
16995;DHT22;8614;48.522;9.206;2022-11-20T18:59:08;7.00;99.90
16995;DHT22;8614;48.522;9.206;2022-11-20T19:01:36;7.10;99.90
16995;DHT22;8614;48.522;9.206;2022-11-20T19:04:05;7.10;99.90
16995;DHT22;8614;48.522;9.206;2022-11-20T19:06:33;7.10;99.90
16995;DHT22;8614;48.522;9.206;2022-11-20T19:09:00;7.10;99.90
16995;DHT22;8614;48.522;9.206;2022-11-20T19:11:27;7.10;99.90
16995;DHT22;8614;48.522;9.206;2022-11-20T19:13:54;7.00;99.90
16995;DHT22;8614;48.522;9.206;2022-11-20T19:16:21;7.00;99.90
16995;DHT22;8614;48.522;9.206;2022-11-20T19:18:49;6.90;99.90
16995;DHT22;8614;48.522;9.206;2022-11-20T19:21:17;6.90;99.90
16995;DHT22;8614;48.522;9.206;2022-11-20T19:23:48;6.90;99.90